Time;durP1;ratioP1;P1;durP2;ratioP2;P2;SDS_P1;SDS_P2;PMS_P1;PMS_P2;Temp;Humidity;BMP_temperature;BMP_pressure;BME280_temperature;BME280_humidity;BME280_pressure;Samples;Min_cycle;Max_cycle;Signal;HPM_P1;HPM_P2
2023/09/29 00:40:27;;;;;;;31.53;4.60;;;15.20;99.90;;;;;;1924385;73;26406;-91
2023/09/29 00:46:45;;;;;;;22.97;4.10;;;15.20;99.90;;;;;;1977107;71;27163;-91
2023/09/29 01:03:41;;;;;;;23.63;4.13;;;15.20;99.90;;;;;;1930001;73;26847;-91
2023/09/29 01:59:17;;;;;;;18.60;3.50;;;15.30;99.90;;;;;;1883163;74;27046;-91
2023/09/29 02:42:49;;;;;;;22.87;2.73;;;15.10;99.90;;;;;;1887691;73;27114;-91
2023/09/29 03:13:40;;;;;;;12.67;2.60;;;14.40;99.90;;;;;;1945363;72;27141;-92
2023/09/29 03:29:44;;;;;;;16.47;3.10;;;14.50;99.90;;;;;;1947960;72;28355;-93
2023/09/29 03:46:24;;;;;;;19.80;3.10;;;14.60;99.90;;;;;;1938200;73;27143;-93
2023/09/29 04:02:50;;;;;;;14.03;2.50;;;14.70;99.90;;;;;;1862746;74;27165;-91
2023/09/29 04:31:24;;;;;;;13.83;2.60;;;14.50;99.90;;;;;;1911447;73;26472;-92
2023/09/29 04:47:27;;;;;;;7.53;1.97;;;14.50;99.90;;;;;;1872479;74;27143;-91
2023/09/29 05:15:32;;;;;;;24.17;3.60;;;14.50;99.90;;;;;;1969080;72;26285;-92
2023/09/29 05:18:23;;;;;;;18.27;3.03;;;14.80;99.90;;;;;;1974377;72;25705;-92
2023/09/29 06:16:05;;;;;;;18.13;2.97;;;14.80;99.90;;;;;;1996214;71;26972;-92
2023/09/29 06:34:54;;;;;;;18.13;3.63;;;15.00;99.90;;;;;;1943332;72;26953;-91
2023/09/29 06:37:42;;;;;;;27.67;3.20;;;15.00;99.90;;;;;;1961111;72;25799;-91
2023/09/29 06:40:31;;;;;;;25.70;3.40;;;15.00;99.90;;;;;;1937546;73;25235;-91
2023/09/29 06:43:20;;;;;;;19.23;4.17;;;15.00;99.90;;;;;;1908916;73;25844;-91
2023/09/29 06:46:11;;;;;;;26.73;3.40;;;15.10;99.90;;;;;;1900476;74;25258;-91
2023/09/29 06:49:01;;;;;;;19.03;3.13;;;15.10;99.90;;;;;;1910566;74;25242;-91
2023/09/29 06:51:50;;;;;;;25.10;3.70;;;15.10;99.90;;;;;;1886824;74;25229;-91
2023/09/29 06:54:38;;;;;;;21.23;3.03;;;15.10;99.90;;;;;;1869798;75;25255;-91
2023/09/29 06:57:27;;;;;;;14.97;3.10;;;15.20;99.90;;;;;;1841083;76;25260;-91
2023/09/29 07:27:17;;;;;;;25.53;3.60;;;15.10;99.90;;;;;;1914723;73;26978;-91
2023/09/29 07:32:54;;;;;;;19.73;3.00;;;15.20;99.90;;;;;;1946512;72;26993;-90
2023/09/29 07:35:44;;;;;;;20.30;3.40;;;15.20;99.90;;;;;;1913827;73;25284;-90
2023/09/29 07:38:33;;;;;;;22.57;3.40;;;15.20;99.90;;;;;;1941755;73;25220;-90
2023/09/29 07:41:21;;;;;;;22.43;3.47;;;15.20;99.90;;;;;;1933384;73;25722;-91
2023/09/29 07:44:09;;;;;;;18.47;3.67;;;15.20;99.90;;;;;;1942170;72;25302;-90
2023/09/29 07:46:58;;;;;;;20.53;3.97;;;15.20;99.90;;;;;;1955497;71;25196;-90
2023/09/29 07:49:47;;;;;;;30.83;3.97;;;15.20;99.90;;;;;;1943425;71;25824;-90
2023/09/29 07:52:37;;;;;;;21.23;3.43;;;15.20;99.90;;;;;;1960052;72;25907;-90
2023/09/29 07:55:25;;;;;;;13.87;2.90;;;15.20;99.90;;;;;;1950304;71;25582;-91
2023/09/29 07:58:15;;;;;;;20.23;3.70;;;15.20;99.90;;;;;;1948095;71;25762;-90
2023/09/29 08:01:03;;;;;;;28.43;4.07;;;15.20;99.90;;;;;;1950376;71;25658;-90
2023/09/29 08:03:52;;;;;;;22.23;3.43;;;15.10;99.90;;;;;;1945451;71;25215;-90
2023/09/29 08:24:24;;;;;;;24.13;3.47;;;15.30;99.90;;;;;;1945587;72;27706;-90
2023/09/29 08:27:13;;;;;;;16.73;3.27;;;15.20;99.90;;;;;;1921641;74;25234;-90
2023/09/29 08:30:01;;;;;;;27.50;4.00;;;15.10;99.90;;;;;;1921525;74;25524;-90
2023/09/29 08:35:41;;;;;;;19.37;3.83;;;15.10;99.90;;;;;;1950266;72;27065;-91
2023/09/29 08:41:12;;;;;;;18.10;3.47;;;15.10;99.90;;;;;;1887053;74;27614;-92
2023/09/29 08:44:03;;;;;;;19.90;4.07;;;15.00;99.90;;;;;;1821029;77;25737;-92
2023/09/29 09:00:23;;;;;;;27.60;4.20;;;15.00;99.90;;;;;;1964281;71;27118;-91
2023/09/29 09:05:53;;;;;;;20.03;3.70;;;15.20;99.90;;;;;;1968894;71;27107;-91
2023/09/29 09:08:42;;;;;;;26.10;4.30;;;15.30;99.90;;;;;;1946887;73;25611;-91
2023/09/29 09:11:32;;;;;;;26.33;4.00;;;15.30;99.90;;;;;;1950720;73;25769;-91
2023/09/29 09:14:20;;;;;;;25.17;4.63;;;15.30;99.90;;;;;;1939016;73;26212;-91
2023/09/29 09:17:10;;;;;;;18.90;3.80;;;15.30;99.90;;;;;;1930175;71;25212;-91
2023/09/29 09:19:59;;;;;;;21.10;3.63;;;15.40;99.90;;;;;;1949116;73;25209;-91
2023/09/29 09:23:00;;;;;;;26.43;3.93;;;15.50;99.90;;;;;;1932509;73;25235;-91
2023/09/29 09:25:48;;;;;;;28.63;3.83;;;15.60;99.90;;;;;;1938958;72;25222;-91
2023/09/29 09:28:36;;;;;;;21.40;3.67;;;15.60;99.90;;;;;;1937761;73;25598;-91
2023/09/29 09:31:25;;;;;;;21.23;3.83;;;15.60;99.90;;;;;;1936753;73;25209;-91
2023/09/29 09:51:41;;;;;;;21.70;3.03;;;16.20;99.90;;;;;;1942062;72;27169;-90
2023/09/29 09:54:32;;;;;;;13.97;2.93;;;16.30;99.90;;;;;;1917263;73;25385;-90
2023/09/29 09:57:24;;;;;;;14.50;2.70;;;16.50;99.90;;;;;;1916370;73;25235;-91
2023/09/29 10:16:35;;;;;;;13.33;2.40;;;16.20;99.90;;;;;;1956709;72;27058;-90
2023/09/29 10:19:24;;;;;;;11.67;2.90;;;16.10;99.90;;;;;;1924297;73;25286;-90
2023/09/29 10:22:22;;;;;;;16.03;2.60;;;16.10;99.90;;;;;;1922908;73;25235;-90
2023/09/29 10:25:20;;;;;;;19.37;2.57;;;16.10;99.90;;;;;;1927415;73;25301;-90
2023/09/29 10:28:07;;;;;;;15.67;2.47;;;16.00;99.90;;;;;;1919957;73;25309;-90
2023/09/29 10:33:50;;;;;;;9.70;2.30;;;16.10;99.90;;;;;;1942970;72;27573;-90
2023/09/29 10:36:39;;;;;;;13.27;2.60;;;16.00;99.90;;;;;;1938558;73;25679;-90
2023/09/29 10:39:28;;;;;;;13.47;2.50;;;16.10;99.90;;;;;;1940753;72;25300;-90
2023/09/29 10:45:11;;;;;;;10.20;2.30;;;16.10;99.90;;;;;;1948643;72;27362;-90
2023/09/29 10:48:06;;;;;;;14.63;2.80;;;16.20;99.90;;;;;;1928233;73;25255;-90
2023/09/29 10:50:55;;;;;;;14.13;2.03;;;16.40;99.90;;;;;;1922187;73;25849;-91
2023/09/29 10:53:43;;;;;;;14.63;2.73;;;16.40;99.90;;;;;;1905948;73;25304;-90
2023/09/29 10:56:33;;;;;;;16.83;3.00;;;16.50;99.90;;;;;;1907897;75;25231;-90
2023/09/29 10:59:23;;;;;;;14.50;2.90;;;16.50;99.90;;;;;;1913809;74;25318;-90
2023/09/29 11:02:12;;;;;;;17.93;2.43;;;16.50;99.90;;;;;;1897110;74;25206;-90
2023/09/29 11:05:03;;;;;;;16.00;2.77;;;16.40;99.90;;;;;;1900122;75;25803;-90
2023/09/29 11:07:52;;;;;;;17.87;2.50;;;16.60;99.90;;;;;;1862950;75;25562;-90
2023/09/29 11:10:41;;;;;;;17.27;2.57;;;16.60;99.90;;;;;;1882133;75;25790;-90
2023/09/29 11:27:58;;;;;;;13.77;2.97;;;16.80;99.90;;;;;;1927881;74;26497;-92
2023/09/29 11:46:42;;;;;;;22.50;3.37;;;17.00;99.90;;;;;;1939678;72;27540;-90
2023/09/29 11:49:31;;;;;;;15.13;2.73;;;16.90;99.90;;;;;;1921110;73;25230;-90
2023/09/29 11:52:19;;;;;;;17.83;3.53;;;16.90;99.90;;;;;;1915993;73;25289;-91
2023/09/29 11:55:11;;;;;;;15.50;3.70;;;16.80;99.90;;;;;;1936239;72;25313;-90
2023/09/29 11:58:01;;;;;;;18.90;3.87;;;16.80;99.90;;;;;;1937783;73;25293;-90
2023/09/29 12:00:50;;;;;;;16.47;3.87;;;16.60;99.90;;;;;;1934601;73;25238;-90
2023/09/29 12:03:38;;;;;;;27.37;3.93;;;16.60;99.90;;;;;;1925574;72;25314;-91
2023/09/29 12:06:26;;;;;;;19.57;3.70;;;16.50;99.90;;;;;;1922562;73;25831;-90
2023/09/29 12:09:15;;;;;;;25.83;4.83;;;16.40;99.90;;;;;;1916924;72;25698;-90
2023/09/29 12:12:07;;;;;;;27.23;4.33;;;16.40;99.90;;;;;;1925814;73;25291;-91
2023/09/29 12:14:55;;;;;;;15.80;3.30;;;16.40;99.90;;;;;;1925535;73;25224;-90
2023/09/29 12:17:44;;;;;;;17.37;3.53;;;16.50;99.90;;;;;;1920932;73;25379;-90
2023/09/29 12:20:33;;;;;;;15.93;3.27;;;16.70;99.90;;;;;;1929613;73;25216;-90
2023/09/29 12:23:21;;;;;;;12.90;3.30;;;16.80;99.90;;;;;;1920642;72;25703;-90
2023/09/29 12:26:10;;;;;;;22.77;3.77;;;16.80;99.90;;;;;;1922628;73;25599;-90
2023/09/29 12:28:59;;;;;;;21.67;3.83;;;16.80;99.90;;;;;;1927636;73;25254;-90
2023/09/29 12:31:49;;;;;;;15.80;3.07;;;16.70;99.90;;;;;;1939773;72;25298;-90
2023/09/29 12:34:37;;;;;;;18.07;3.53;;;16.80;99.90;;;;;;1926638;73;25215;-90
2023/09/29 12:37:26;;;;;;;20.70;3.70;;;16.70;99.90;;;;;;1918804;73;25227;-90
2023/09/29 12:54:02;;;;;;;19.73;3.77;;;16.60;99.90;;;;;;1980570;71;26983;-90
2023/09/29 13:10:39;;;;;;;25.27;4.17;;;16.30;99.90;;;;;;1916208;73;26625;-91
2023/09/29 13:27:11;;;;;;;15.57;3.77;;;16.20;99.90;;;;;;2007374;69;27042;-92
2023/09/29 13:46:36;;;;;;;23.07;4.20;;;16.60;99.90;;;;;;1937524;71;27134;-89
2023/09/29 13:52:20;;;;;;;25.10;4.60;;;16.40;99.90;;;;;;1941730;72;27342;-90
2023/09/29 13:57:50;;;;;;;25.47;4.10;;;16.40;99.90;;;;;;1936491;72;27121;-89
2023/09/29 14:03:34;;;;;;;23.23;3.97;;;16.30;99.90;;;;;;1940033;72;26991;-89
2023/09/29 14:06:22;;;;;;;20.83;3.97;;;16.40;99.90;;;;;;1937677;73;25266;-89
2023/09/29 14:09:12;;;;;;;25.17;4.63;;;16.50;99.90;;;;;;1933071;73;25261;-89
2023/09/29 14:12:01;;;;;;;16.37;3.90;;;16.60;99.90;;;;;;1922287;73;25548;-89
2023/09/29 14:14:50;;;;;;;29.00;4.53;;;16.60;99.90;;;;;;1915692;73;25249;-89
2023/09/29 14:17:38;;;;;;;23.50;4.00;;;16.60;99.90;;;;;;1893452;75;25647;-89
2023/09/29 14:20:28;;;;;;;24.77;4.30;;;16.50;99.90;;;;;;1889499;75;25277;-89
2023/09/29 14:23:18;;;;;;;25.10;4.80;;;16.50;99.90;;;;;;1870955;76;26131;-89
2023/09/29 14:26:10;;;;;;;25.73;4.13;;;16.50;99.90;;;;;;1876190;75;25353;-90
2023/09/29 14:31:52;;;;;;;17.70;3.93;;;16.60;99.90;;;;;;1947684;71;26962;-90
2023/09/29 14:34:41;;;;;;;23.40;4.17;;;16.60;99.90;;;;;;1939359;72;25238;-90
2023/09/29 14:37:29;;;;;;;27.10;4.50;;;16.60;99.90;;;;;;1935844;72;25316;-90
2023/09/29 14:40:18;;;;;;;16.40;3.90;;;16.50;99.90;;;;;;1934163;72;25262;-90
2023/09/29 14:56:22;;;;;;;25.00;3.57;;;16.40;99.90;;;;;;1880061;75;27125;-90
2023/09/29 15:02:04;;;;;;;24.47;4.50;;;16.20;99.90;;;;;;1940713;72;27643;-88
2023/09/29 15:04:53;;;;;;;19.33;4.17;;;16.20;99.90;;;;;;1940972;72;25298;-87
2023/09/29 15:07:42;;;;;;;18.13;3.63;;;16.20;99.90;;;;;;1933206;72;25914;-87
2023/09/29 15:10:30;;;;;;;17.10;3.90;;;16.20;99.90;;;;;;1922939;73;26104;-87
2023/09/29 15:13:19;;;;;;;16.83;3.47;;;16.10;99.90;;;;;;1926340;73;25248;-87
2023/09/29 15:16:12;;;;;;;18.40;3.40;;;16.10;99.90;;;;;;1919555;73;25231;-87
2023/09/29 15:21:42;;;;;;;15.03;3.73;;;16.00;99.90;;;;;;1925395;72;27057;-87
2023/09/29 15:24:31;;;;;;;20.07;3.93;;;16.10;99.90;;;;;;1878641;75;25241;-87
2023/09/29 15:27:20;;;;;;;16.60;3.33;;;16.00;99.90;;;;;;1870243;75;25354;-87
2023/09/29 15:30:10;;;;;;;14.27;3.40;;;15.90;99.90;;;;;;1879163;75;25300;-87
2023/09/29 15:32:58;;;;;;;16.97;3.13;;;16.00;99.90;;;;;;1878331;75;25230;-87
2023/09/29 15:35:51;;;;;;;15.93;3.37;;;16.00;99.90;;;;;;1869056;75;25235;-87
2023/09/29 15:38:40;;;;;;;12.73;3.73;;;16.00;99.90;;;;;;1875758;75;25281;-87
2023/09/29 15:44:08;;;;;;;22.53;3.67;;;15.80;99.90;;;;;;1924885;72;27174;-87
2023/09/29 15:49:51;;;;;;;16.60;3.73;;;15.80;99.90;;;;;;1941946;72;27063;-87
2023/09/29 15:55:20;;;;;;;12.57;4.10;;;15.80;99.90;;;;;;1929482;72;27346;-87
2023/09/29 16:00:48;;;;;;;16.97;4.83;;;15.80;99.90;;;;;;1933566;72;27072;-87
2023/09/29 16:03:36;;;;;;;28.57;4.80;;;15.70;99.90;;;;;;1910142;75;25308;-88
2023/09/29 16:06:29;;;;;;;18.97;5.07;;;15.60;99.90;;;;;;1906417;75;25287;-88
2023/09/29 16:09:20;;;;;;;21.03;5.47;;;15.60;99.90;;;;;;1902165;74;25587;-88
2023/09/29 16:12:09;;;;;;;19.97;5.77;;;15.50;99.90;;;;;;1902770;73;25709;-88
2023/09/29 16:18:20;;;;;;;28.43;6.23;;;15.40;99.90;;;;;;1979128;71;27164;-88
2023/09/29 16:21:08;;;;;;;22.67;5.93;;;15.30;99.90;;;;;;1958467;72;25202;-88
2023/09/29 16:23:57;;;;;;;30.10;6.77;;;15.30;99.90;;;;;;2035755;69;25678;-88
2023/09/29 16:26:47;;;;;;;25.13;7.00;;;15.20;99.90;;;;;;2041533;69;25201;-88
2023/09/29 16:29:37;;;;;;;31.57;7.00;;;15.20;99.90;;;;;;2038691;69;25671;-88
2023/09/29 16:32:26;;;;;;;25.53;7.13;;;15.20;99.90;;;;;;2047788;69;25324;-88
2023/09/29 16:35:15;;;;;;;23.93;7.20;;;15.20;99.90;;;;;;2037936;69;25269;-88
2023/09/29 16:38:04;;;;;;;28.23;7.10;;;15.20;99.90;;;;;;2032050;69;25258;-88
2023/09/29 16:40:54;;;;;;;32.43;7.40;;;15.20;99.90;;;;;;2034834;69;25529;-88
2023/09/29 16:43:42;;;;;;;24.17;7.23;;;15.10;99.90;;;;;;2006107;70;25301;-88
2023/09/29 16:49:22;;;;;;;25.27;7.23;;;15.10;99.90;;;;;;1940183;72;26958;-87
2023/09/29 16:52:11;;;;;;;26.53;7.50;;;15.10;99.90;;;;;;1923049;72;25353;-90
2023/09/29 16:55:00;;;;;;;27.97;7.73;;;15.10;99.90;;;;;;1926687;73;25352;-91
2023/09/29 16:57:50;;;;;;;27.27;7.33;;;15.10;99.90;;;;;;1934959;72;25236;-91
2023/09/29 17:00:38;;;;;;;27.10;6.83;;;15.10;99.90;;;;;;1927589;72;25840;-91
2023/09/29 17:03:27;;;;;;;23.20;7.37;;;15.00;99.90;;;;;;1920363;72;25238;-91
2023/09/29 17:06:15;;;;;;;24.87;6.87;;;15.10;99.90;;;;;;1934430;72;25686;-91
2023/09/29 17:09:04;;;;;;;30.10;7.03;;;15.10;99.90;;;;;;1910609;72;26731;-91
2023/09/29 17:11:54;;;;;;;27.93;6.93;;;15.20;99.90;;;;;;1917321;72;26773;-89
2023/09/29 17:14:44;;;;;;;29.63;7.33;;;15.20;99.90;;;;;;1930820;72;25257;-88
2023/09/29 17:17:32;;;;;;;24.90;6.27;;;15.20;99.90;;;;;;1948853;72;25193;-88
2023/09/29 17:20:23;;;;;;;27.47;7.03;;;15.20;99.90;;;;;;1932270;72;25236;-91
2023/09/29 17:23:14;;;;;;;28.07;7.17;;;15.20;99.90;;;;;;1930377;73;25857;-91
2023/09/29 17:26:03;;;;;;;24.90;7.33;;;15.10;99.90;;;;;;1920690;72;25728;-91
2023/09/29 17:42:11;;;;;;;28.83;8.60;;;15.20;99.90;;;;;;1909035;73;26909;-89
2023/09/29 17:47:51;;;;;;;29.27;8.27;;;15.10;99.90;;;;;;1940628;72;27831;-89
2023/09/29 17:50:41;;;;;;;32.43;8.83;;;15.10;99.90;;;;;;1939010;72;25251;-90
2023/09/29 17:53:33;;;;;;;36.17;9.27;;;15.20;99.90;;;;;;1919258;73;25280;-89
2023/09/29 17:56:22;;;;;;;33.20;8.83;;;15.20;99.90;;;;;;1928171;72;25321;-90
2023/09/29 17:59:12;;;;;;;31.43;8.47;;;15.20;99.90;;;;;;1920610;73;25300;-89
2023/09/29 18:02:01;;;;;;;42.33;9.47;;;15.30;99.90;;;;;;1927292;73;25823;-89
2023/09/29 18:07:42;;;;;;;23.23;8.07;;;15.20;99.90;;;;;;1949355;72;27069;-89
2023/09/29 18:13:24;;;;;;;21.43;5.87;;;15.00;99.90;;;;;;1936803;72;27054;-89
2023/09/29 18:16:13;;;;;;;19.20;5.27;;;14.90;99.90;;;;;;1877283;75;25225;-89
2023/09/29 18:19:01;;;;;;;28.63;5.80;;;14.90;99.90;;;;;;1894674;75;25601;-89
2023/09/29 18:21:49;;;;;;;23.37;5.93;;;14.80;99.90;;;;;;1905898;75;25264;-89
2023/09/29 18:24:38;;;;;;;25.50;6.20;;;14.80;99.90;;;;;;1890313;73;25695;-89
2023/09/29 18:27:26;;;;;;;22.50;6.27;;;14.80;99.90;;;;;;1886547;75;25324;-89
2023/09/29 18:30:15;;;;;;;33.77;6.47;;;14.80;99.90;;;;;;1893190;75;25279;-89
2023/09/29 18:33:04;;;;;;;18.37;6.83;;;14.80;99.90;;;;;;1900551;75;25331;-89
2023/09/29 18:35:54;;;;;;;25.70;6.83;;;14.80;99.90;;;;;;1888847;75;25238;-89
2023/09/29 19:05:55;;;;;;;20.70;4.73;;;14.90;99.90;;;;;;1861902;75;27227;-89
2023/09/29 19:22:33;;;;;;;19.13;5.67;;;14.70;99.90;;;;;;1996254;71;26327;-89
2023/09/29 19:38:54;;;;;;;16.57;4.70;;;14.70;99.90;;;;;;1903611;74;27296;-89
2023/09/29 19:44:32;;;;;;;19.23;5.07;;;14.60;99.90;;;;;;1933832;72;27814;-89
2023/09/29 19:47:22;;;;;;;23.43;5.80;;;14.60;99.90;;;;;;1910934;74;25346;-90
2023/09/29 20:03:40;;;;;;;13.13;4.97;;;14.50;99.90;;;;;;1918669;72;27028;-90
2023/09/29 20:21:48;;;;;;;21.90;7.00;;;14.40;99.90;;;;;;1970885;71;26341;-89
2023/09/29 21:09:11;;;;;;;12.37;3.00;;;14.40;99.90;;;;;;1945320;72;27586;-89
2023/09/29 21:25:50;;;;;;;6.97;2.63;;;14.00;99.90;;;;;;1908650;74;27193;-89
2023/09/29 21:41:53;;;;;;;10.30;3.13;;;13.50;99.90;;;;;;1889897;74;27184;-88
2023/09/29 21:47:39;;;;;;;13.93;4.57;;;13.40;99.90;;;;;;1940177;72;27535;-88
2023/09/29 21:50:29;;;;;;;19.70;4.07;;;13.40;99.90;;;;;;1926507;73;25206;-88
2023/09/29 21:56:18;;;;;;;9.23;3.63;;;13.30;99.90;;;;;;1947921;71;27632;-88
2023/09/29 22:13:17;;;;;;;13.07;4.07;;;13.30;99.90;;;;;;1885158;75;27181;-89
2023/09/29 22:32:35;;;;;;;15.70;3.50;;;13.30;99.90;;;;;;1938755;72;27891;-88
2023/09/29 22:35:24;;;;;;;11.10;3.40;;;13.40;99.90;;;;;;1930415;73;25274;-88
2023/09/29 22:41:00;;;;;;;15.43;3.40;;;13.40;99.90;;;;;;1938668;72;27177;-88
2023/09/29 22:43:49;;;;;;;15.27;3.40;;;13.40;99.90;;;;;;1903527;74;25590;-88
2023/09/29 22:46:38;;;;;;;11.93;3.37;;;13.40;99.90;;;;;;1909449;74;25768;-88
2023/09/29 22:49:27;;;;;;;11.93;3.17;;;13.40;99.90;;;;;;1901921;74;25304;-88
2023/09/29 22:52:16;;;;;;;15.53;3.03;;;13.40;99.90;;;;;;1902565;74;25310;-88
2023/09/29 22:55:06;;;;;;;14.83;3.43;;;13.30;99.90;;;;;;1911083;74;25263;-87
2023/09/29 23:00:41;;;;;;;21.00;3.93;;;13.20;99.90;;;;;;1950181;72;27120;-87
2023/09/29 23:03:30;;;;;;;14.47;3.77;;;13.20;99.90;;;;;;1919110;73;25258;-88
2023/09/29 23:06:19;;;;;;;16.67;4.00;;;13.10;99.90;;;;;;1919997;73;25315;-88
2023/09/29 23:09:08;;;;;;;18.27;3.77;;;13.10;99.90;;;;;;1940819;73;25612;-88
2023/09/29 23:11:58;;;;;;;21.53;4.83;;;13.00;99.90;;;;;;1923962;73;25241;-87
2023/09/29 23:14:46;;;;;;;22.87;4.00;;;13.00;99.90;;;;;;1930102;73;25286;-88
2023/09/29 23:20:20;;;;;;;20.90;4.30;;;12.90;99.90;;;;;;1949319;72;27332;-87
2023/09/29 23:23:09;;;;;;;22.43;4.20;;;13.00;99.90;;;;;;1932562;73;25222;-87
2023/09/29 23:25:58;;;;;;;23.13;4.83;;;12.90;99.90;;;;;;1920549;73;25798;-87
2023/09/29 23:28:47;;;;;;;16.80;4.20;;;13.00;99.90;;;;;;1921118;73;25797;-87
2023/09/29 23:31:35;;;;;;;24.43;5.10;;;13.00;99.90;;;;;;1916521;73;25269;-87
2023/09/29 23:34:24;;;;;;;19.30;4.07;;;12.90;99.90;;;;;;1888508;75;26233;-87
2023/09/29 23:37:13;;;;;;;26.90;4.53;;;12.90;99.90;;;;;;1865138;75;25825;-88
2023/09/29 23:40:05;;;;;;;28.27;4.53;;;12.90;99.90;;;;;;1870271;75;25250;-87
2023/09/29 23:42:52;;;;;;;24.40;4.33;;;12.90;99.90;;;;;;1873934;75;25748;-88
2023/09/29 23:45:41;;;;;;;23.17;4.60;;;12.90;99.90;;;;;;1871768;75;25230;-88
2023/09/29 23:48:30;;;;;;;26.30;4.87;;;12.90;99.90;;;;;;1862363;76;25567;-87
2023/09/29 23:51:19;;;;;;;21.37;4.63;;;12.80;99.90;;;;;;1879998;75;25413;-88
2023/09/29 23:54:08;;;;;;;18.10;4.03;;;12.90;99.90;;;;;;1891789;75;25514;-88
2023/09/29 23:56:57;;;;;;;22.80;4.30;;;12.80;99.90;;;;;;1899128;74;25259;-88
